sensor_id;sensor_type;location;lat;lon;timestamp;temperature;humidity
17845;DHT22;9047;53.486;10.218;2023-04-24T00:01:59;12.10;99.90
17845;DHT22;9047;53.486;10.218;2023-04-24T00:04:30;12.10;99.90
17845;DHT22;9047;53.486;10.218;2023-04-24T00:06:58;12.10;99.90
17845;DHT22;9047;53.486;10.218;2023-04-24T00:09:29;12.00;99.90
17845;DHT22;9047;53.486;10.218;2023-04-24T00:11:56;12.00;99.90
17845;DHT22;9047;53.486;10.218;2023-04-24T00:14:25;12.00;99.90
17845;DHT22;9047;53.486;10.218;2023-04-24T00:16:55;11.90;99.90
17845;DHT22;9047;53.486;10.218;2023-04-24T00:19:23;11.90;99.90
17845;DHT22;9047;53.486;10.218;2023-04-24T00:21:51;11.80;99.90
17845;DHT22;9047;53.486;10.218;2023-04-24T00:24:19;11.80;99.90
17845;DHT22;9047;53.486;10.218;2023-04-24T00:26:47;11.70;99.90
17845;DHT22;9047;53.486;10.218;2023-04-24T00:29:19;11.80;99.90
17845;DHT22;9047;53.486;10.218;2023-04-24T00:31:47;11.70;99.90
17845;DHT22;9047;53.486;10.218;2023-04-24T00:34:15;11.70;99.90
17845;DHT22;9047;53.486;10.218;2023-04-24T00:36:43;11.70;99.90
17845;DHT22;9047;53.486;10.218;2023-04-24T00:39:14;11.60;99.90
17845;DHT22;9047;53.486;10.218;2023-04-24T00:41:41;11.60;99.90
17845;DHT22;9047;53.486;10.218;2023-04-24T00:44:09;11.60;99.90
17845;DHT22;9047;53.486;10.218;2023-04-24T00:46:37;11.60;99.90
17845;DHT22;9047;53.486;10.218;2023-04-24T00:49:08;11.50;99.90
17845;DHT22;9047;53.486;10.218;2023-04-24T00:51:36;11.50;99.90
17845;DHT22;9047;53.486;10.218;2023-04-24T00:54:11;11.50;99.90
17845;DHT22;9047;53.486;10.218;2023-04-24T00:56:45;11.50;99.90
17845;DHT22;9047;53.486;10.218;2023-04-24T00:59:13;11.50;99.90
17845;DHT22;9047;53.486;10.218;2023-04-24T01:01:43;11.50;99.90
17845;DHT22;9047;53.486;10.218;2023-04-24T01:04:12;11.50;99.90
17845;DHT22;9047;53.486;10.218;2023-04-24T01:06:43;11.50;99.90
17845;DHT22;9047;53.486;10.218;2023-04-24T01:09:15;11.50;99.90
17845;DHT22;9047;53.486;10.218;2023-04-24T01:11:47;11.50;99.90
17845;DHT22;9047;53.486;10.218;2023-04-24T01:14:21;11.50;99.90
17845;DHT22;9047;53.486;10.218;2023-04-24T01:16:51;11.50;99.90
17845;DHT22;9047;53.486;10.218;2023-04-24T01:19:22;11.60;99.90
17845;DHT22;9047;53.486;10.218;2023-04-24T01:21:53;11.60;99.90
17845;DHT22;9047;53.486;10.218;2023-04-24T01:24:28;11.60;99.90
17845;DHT22;9047;53.486;10.218;2023-04-24T01:27:08;11.50;99.90
17845;DHT22;9047;53.486;10.218;2023-04-24T01:29:36;11.40;99.90
17845;DHT22;9047;53.486;10.218;2023-04-24T01:32:08;11.40;99.90
17845;DHT22;9047;53.486;10.218;2023-04-24T01:34:39;11.40;99.90
17845;DHT22;9047;53.486;10.218;2023-04-24T01:37:07;11.40;99.90
17845;DHT22;9047;53.486;10.218;2023-04-24T01:39:39;11.30;99.90
17845;DHT22;9047;53.486;10.218;2023-04-24T01:42:09;11.30;99.90
17845;DHT22;9047;53.486;10.218;2023-04-24T01:44:38;11.20;99.90
17845;DHT22;9047;53.486;10.218;2023-04-24T01:47:18;11.10;99.90
17845;DHT22;9047;53.486;10.218;2023-04-24T01:49:46;11.20;99.90
17845;DHT22;9047;53.486;10.218;2023-04-24T01:52:14;11.10;99.90
17845;DHT22;9047;53.486;10.218;2023-04-24T01:54:44;11.00;99.90
17845;DHT22;9047;53.486;10.218;2023-04-24T01:57:12;11.00;99.90
17845;DHT22;9047;53.486;10.218;2023-04-24T01:59:40;10.90;99.90
17845;DHT22;9047;53.486;10.218;2023-04-24T02:02:24;10.90;99.90
17845;DHT22;9047;53.486;10.218;2023-04-24T02:04:58;10.90;99.90
17845;DHT22;9047;53.486;10.218;2023-04-24T02:07:30;10.80;99.90
17845;DHT22;9047;53.486;10.218;2023-04-24T02:10:04;10.70;99.90
17845;DHT22;9047;53.486;10.218;2023-04-24T02:12:51;10.70;99.90
17845;DHT22;9047;53.486;10.218;2023-04-24T02:15:33;10.60;99.90
17845;DHT22;9047;53.486;10.218;2023-04-24T02:18:06;10.60;99.90
17845;DHT22;9047;53.486;10.218;2023-04-24T02:20:36;10.50;99.90
17845;DHT22;9047;53.486;10.218;2023-04-24T02:23:11;10.50;99.90
17845;DHT22;9047;53.486;10.218;2023-04-24T02:25:45;10.50;99.90
17845;DHT22;9047;53.486;10.218;2023-04-24T02:28:15;10.40;99.90
17845;DHT22;9047;53.486;10.218;2023-04-24T02:30:43;10.40;99.90
17845;DHT22;9047;53.486;10.218;2023-04-24T02:33:14;10.30;99.90
17845;DHT22;9047;53.486;10.218;2023-04-24T02:35:50;10.30;99.90
17845;DHT22;9047;53.486;10.218;2023-04-24T02:38:18;10.30;99.90
17845;DHT22;9047;53.486;10.218;2023-04-24T02:40:53;10.30;99.90
17845;DHT22;9047;53.486;10.218;2023-04-24T02:43:24;10.20;99.90
17845;DHT22;9047;53.486;10.218;2023-04-24T02:45:54;10.20;99.90
17845;DHT22;9047;53.486;10.218;2023-04-24T02:48:24;10.20;99.90
17845;DHT22;9047;53.486;10.218;2023-04-24T02:50:56;10.20;99.90
17845;DHT22;9047;53.486;10.218;2023-04-24T02:53:23;10.20;99.90
17845;DHT22;9047;53.486;10.218;2023-04-24T02:56:00;10.20;99.90
17845;DHT22;9047;53.486;10.218;2023-04-24T02:58:27;10.20;99.90
17845;DHT22;9047;53.486;10.218;2023-04-24T03:00:55;10.20;99.90
17845;DHT22;9047;53.486;10.218;2023-04-24T03:03:23;10.20;99.90
17845;DHT22;9047;53.486;10.218;2023-04-24T03:05:51;10.20;99.90
17845;DHT22;9047;53.486;10.218;2023-04-24T03:08:20;10.20;99.90
17845;DHT22;9047;53.486;10.218;2023-04-24T03:10:47;10.30;99.90
17845;DHT22;9047;53.486;10.218;2023-04-24T03:13:17;10.30;99.90
17845;DHT22;9047;53.486;10.218;2023-04-24T03:15:52;10.30;99.90
17845;DHT22;9047;53.486;10.218;2023-04-24T03:18:22;10.30;99.90
17845;DHT22;9047;53.486;10.218;2023-04-24T03:20:52;10.30;99.90
17845;DHT22;9047;53.486;10.218;2023-04-24T03:23:20;10.30;99.90
17845;DHT22;9047;53.486;10.218;2023-04-24T03:25:50;10.30;99.90
17845;DHT22;9047;53.486;10.218;2023-04-24T03:28:26;10.30;99.90
17845;DHT22;9047;53.486;10.218;2023-04-24T03:31:03;10.30;99.90
17845;DHT22;9047;53.486;10.218;2023-04-24T03:33:36;10.20;99.90
17845;DHT22;9047;53.486;10.218;2023-04-24T03:36:04;10.20;99.90
17845;DHT22;9047;53.486;10.218;2023-04-24T03:38:34;10.20;99.90
17845;DHT22;9047;53.486;10.218;2023-04-24T03:41:16;10.10;99.90
17845;DHT22;9047;53.486;10.218;2023-04-24T03:43:48;10.10;99.90
17845;DHT22;9047;53.486;10.218;2023-04-24T03:46:21;10.00;99.90
17845;DHT22;9047;53.486;10.218;2023-04-24T03:48:48;10.10;99.90
17845;DHT22;9047;53.486;10.218;2023-04-24T03:51:33;10.10;99.90
17845;DHT22;9047;53.486;10.218;2023-04-24T03:54:11;10.10;99.90
17845;DHT22;9047;53.486;10.218;2023-04-24T03:56:39;10.10;99.90
17845;DHT22;9047;53.486;10.218;2023-04-24T03:59:11;10.10;99.90
17845;DHT22;9047;53.486;10.218;2023-04-24T04:01:45;10.00;99.90
17845;DHT22;9047;53.486;10.218;2023-04-24T04:04:21;10.00;99.90
17845;DHT22;9047;53.486;10.218;2023-04-24T04:06:54;10.00;99.90
17845;DHT22;9047;53.486;10.218;2023-04-24T04:09:24;9.90;99.90
17845;DHT22;9047;53.486;10.218;2023-04-24T04:12:14;9.90;99.90
17845;DHT22;9047;53.486;10.218;2023-04-24T04:18:15;9.80;99.90
17845;DHT22;9047;53.486;10.218;2023-04-24T04:20:42;9.80;99.90
17845;DHT22;9047;53.486;10.218;2023-04-24T04:23:10;9.70;99.90
17845;DHT22;9047;53.486;10.218;2023-04-24T04:25:41;9.70;99.90
17845;DHT22;9047;53.486;10.218;2023-04-24T04:28:22;9.70;99.90
17845;DHT22;9047;53.486;10.218;2023-04-24T04:30:53;9.60;99.90
17845;DHT22;9047;53.486;10.218;2023-04-24T04:33:23;9.70;99.90
17845;DHT22;9047;53.486;10.218;2023-04-24T04:36:08;9.70;99.90
17845;DHT22;9047;53.486;10.218;2023-04-24T04:39:08;9.70;99.90
17845;DHT22;9047;53.486;10.218;2023-04-24T04:41:38;9.70;99.90
17845;DHT22;9047;53.486;10.218;2023-04-24T04:44:05;9.70;99.90
17845;DHT22;9047;53.486;10.218;2023-04-24T04:46:34;9.70;99.90
17845;DHT22;9047;53.486;10.218;2023-04-24T04:49:06;9.70;99.90
17845;DHT22;9047;53.486;10.218;2023-04-24T04:51:34;9.60;99.90
17845;DHT22;9047;53.486;10.218;2023-04-24T04:54:02;9.70;99.90
17845;DHT22;9047;53.486;10.218;2023-04-24T04:56:31;9.60;99.90
17845;DHT22;9047;53.486;10.218;2023-04-24T04:58:59;9.70;99.90
17845;DHT22;9047;53.486;10.218;2023-04-24T05:01:26;9.70;99.90
17845;DHT22;9047;53.486;10.218;2023-04-24T05:03:56;9.70;99.90
17845;DHT22;9047;53.486;10.218;2023-04-24T05:06:29;9.70;99.90
17845;DHT22;9047;53.486;10.218;2023-04-24T05:08:58;9.80;99.90
17845;DHT22;9047;53.486;10.218;2023-04-24T05:11:37;9.70;99.90
17845;DHT22;9047;53.486;10.218;2023-04-24T05:14:03;9.80;99.90
17845;DHT22;9047;53.486;10.218;2023-04-24T05:16:31;9.90;99.90
17845;DHT22;9047;53.486;10.218;2023-04-24T05:18:59;9.90;99.90
17845;DHT22;9047;53.486;10.218;2023-04-24T05:21:27;9.90;99.90
17845;DHT22;9047;53.486;10.218;2023-04-24T05:24:02;9.90;99.90
17845;DHT22;9047;53.486;10.218;2023-04-24T05:26:35;10.00;99.90
17845;DHT22;9047;53.486;10.218;2023-04-24T05:29:06;10.00;99.90
17845;DHT22;9047;53.486;10.218;2023-04-24T05:31:35;10.10;99.90
17845;DHT22;9047;53.486;10.218;2023-04-24T05:34:03;10.20;99.90
17845;DHT22;9047;53.486;10.218;2023-04-24T05:36:33;10.20;99.90
17845;DHT22;9047;53.486;10.218;2023-04-24T05:39:03;10.30;99.90
17845;DHT22;9047;53.486;10.218;2023-04-24T05:41:32;10.40;99.90
17845;DHT22;9047;53.486;10.218;2023-04-24T05:44:01;10.40;99.90
17845;DHT22;9047;53.486;10.218;2023-04-24T05:46:31;10.50;99.90
17845;DHT22;9047;53.486;10.218;2023-04-24T05:49:04;10.60;99.90
17845;DHT22;9047;53.486;10.218;2023-04-24T05:51:39;10.70;99.90
17845;DHT22;9047;53.486;10.218;2023-04-24T05:54:07;10.80;99.90
17845;DHT22;9047;53.486;10.218;2023-04-24T05:56:49;10.90;99.90
17845;DHT22;9047;53.486;10.218;2023-04-24T05:59:17;10.90;99.90
17845;DHT22;9047;53.486;10.218;2023-04-24T06:01:53;11.00;99.90
17845;DHT22;9047;53.486;10.218;2023-04-24T06:04:24;11.10;99.90
17845;DHT22;9047;53.486;10.218;2023-04-24T06:07:02;11.40;99.90
17845;DHT22;9047;53.486;10.218;2023-04-24T06:09:30;11.70;99.90
17845;DHT22;9047;53.486;10.218;2023-04-24T06:11:57;12.20;99.90
17845;DHT22;9047;53.486;10.218;2023-04-24T06:14:28;12.50;99.90
17845;DHT22;9047;53.486;10.218;2023-04-24T06:16:58;13.00;99.90
17845;DHT22;9047;53.486;10.218;2023-04-24T06:19:28;13.50;99.90
17845;DHT22;9047;53.486;10.218;2023-04-24T06:22:01;14.30;99.90
17845;DHT22;9047;53.486;10.218;2023-04-24T06:24:29;15.20;99.90
17845;DHT22;9047;53.486;10.218;2023-04-24T06:27:01;16.10;99.90
17845;DHT22;9047;53.486;10.218;2023-04-24T06:29:50;16.90;99.90
17845;DHT22;9047;53.486;10.218;2023-04-24T06:32:30;17.60;99.90
17845;DHT22;9047;53.486;10.218;2023-04-24T06:35:09;18.10;99.90
17845;DHT22;9047;53.486;10.218;2023-04-24T06:37:42;18.50;99.90
17845;DHT22;9047;53.486;10.218;2023-04-24T06:40:10;18.90;99.90
17845;DHT22;9047;53.486;10.218;2023-04-24T06:42:42;19.20;99.90
17845;DHT22;9047;53.486;10.218;2023-04-24T06:45:16;19.50;99.90
17845;DHT22;9047;53.486;10.218;2023-04-24T06:47:48;19.60;99.90
17845;DHT22;9047;53.486;10.218;2023-04-24T06:50:18;19.80;99.90
17845;DHT22;9047;53.486;10.218;2023-04-24T06:52:53;20.10;99.90
17845;DHT22;9047;53.486;10.218;2023-04-24T06:55:22;20.30;99.30
17845;DHT22;9047;53.486;10.218;2023-04-24T06:57:50;20.60;98.90
17845;DHT22;9047;53.486;10.218;2023-04-24T07:00:20;20.70;97.30
17845;DHT22;9047;53.486;10.218;2023-04-24T07:02:58;20.80;96.50
17845;DHT22;9047;53.486;10.218;2023-04-24T07:05:26;20.70;96.90
17845;DHT22;9047;53.486;10.218;2023-04-24T07:07:57;20.70;96.90
17845;DHT22;9047;53.486;10.218;2023-04-24T07:10:33;20.80;96.20
17845;DHT22;9047;53.486;10.218;2023-04-24T07:13:07;20.70;95.80
17845;DHT22;9047;53.486;10.218;2023-04-24T07:15:35;20.50;95.90
17845;DHT22;9047;53.486;10.218;2023-04-24T07:18:10;20.20;96.70
17845;DHT22;9047;53.486;10.218;2023-04-24T07:20:40;20.30;96.30
17845;DHT22;9047;53.486;10.218;2023-04-24T07:23:17;20.40;96.30
17845;DHT22;9047;53.486;10.218;2023-04-24T07:25:47;20.50;96.20
17845;DHT22;9047;53.486;10.218;2023-04-24T07:28:22;20.90;95.10
17845;DHT22;9047;53.486;10.218;2023-04-24T07:30:56;20.80;94.70
17845;DHT22;9047;53.486;10.218;2023-04-24T07:33:29;20.60;94.80
17845;DHT22;9047;53.486;10.218;2023-04-24T07:35:57;20.40;95.10
17845;DHT22;9047;53.486;10.218;2023-04-24T07:38:32;20.60;95.60
17845;DHT22;9047;53.486;10.218;2023-04-24T07:41:03;20.60;94.90
17845;DHT22;9047;53.486;10.218;2023-04-24T07:43:33;20.20;94.00
17845;DHT22;9047;53.486;10.218;2023-04-24T07:46:04;19.70;94.80
17845;DHT22;9047;53.486;10.218;2023-04-24T07:48:32;19.00;95.40
17845;DHT22;9047;53.486;10.218;2023-04-24T07:51:01;18.60;96.40
17845;DHT22;9047;53.486;10.218;2023-04-24T07:53:35;18.30;96.60
17845;DHT22;9047;53.486;10.218;2023-04-24T07:56:28;17.90;97.30
17845;DHT22;9047;53.486;10.218;2023-04-24T07:59:04;17.70;97.90
17845;DHT22;9047;53.486;10.218;2023-04-24T08:01:32;17.60;98.20
17845;DHT22;9047;53.486;10.218;2023-04-24T08:04:01;17.30;98.30
17845;DHT22;9047;53.486;10.218;2023-04-24T08:06:30;17.00;98.60
17845;DHT22;9047;53.486;10.218;2023-04-24T08:09:06;16.80;99.10
17845;DHT22;9047;53.486;10.218;2023-04-24T08:11:34;16.70;99.80
17845;DHT22;9047;53.486;10.218;2023-04-24T08:14:04;16.60;99.90
17845;DHT22;9047;53.486;10.218;2023-04-24T08:16:47;16.60;99.90
17845;DHT22;9047;53.486;10.218;2023-04-24T08:19:28;16.80;99.90
17845;DHT22;9047;53.486;10.218;2023-04-24T08:21:56;16.90;99.90
17845;DHT22;9047;53.486;10.218;2023-04-24T08:24:35;16.90;99.80
17845;DHT22;9047;53.486;10.218;2023-04-24T08:27:06;16.80;99.80
17845;DHT22;9047;53.486;10.218;2023-04-24T08:29:42;16.70;99.90
17845;DHT22;9047;53.486;10.218;2023-04-24T08:32:16;16.60;99.90
17845;DHT22;9047;53.486;10.218;2023-04-24T08:34:47;16.50;99.90
17845;DHT22;9047;53.486;10.218;2023-04-24T08:37:15;16.40;99.90
17845;DHT22;9047;53.486;10.218;2023-04-24T08:40:02;16.30;99.90
17845;DHT22;9047;53.486;10.218;2023-04-24T08:43:06;16.20;99.90
17845;DHT22;9047;53.486;10.218;2023-04-24T08:45:47;16.20;99.90
17845;DHT22;9047;53.486;10.218;2023-04-24T08:48:41;16.30;99.90
17845;DHT22;9047;53.486;10.218;2023-04-24T08:51:23;16.40;99.90
17845;DHT22;9047;53.486;10.218;2023-04-24T08:53:54;16.40;99.90
17845;DHT22;9047;53.486;10.218;2023-04-24T08:56:32;16.30;99.90
17845;DHT22;9047;53.486;10.218;2023-04-24T08:59:13;16.40;99.90
17845;DHT22;9047;53.486;10.218;2023-04-24T09:01:55;16.50;99.90
17845;DHT22;9047;53.486;10.218;2023-04-24T09:04:38;16.60;99.90
17845;DHT22;9047;53.486;10.218;2023-04-24T09:07:14;16.60;99.90
17845;DHT22;9047;53.486;10.218;2023-04-24T09:09:49;16.70;99.90
17845;DHT22;9047;53.486;10.218;2023-04-24T09:12:48;16.80;99.90
17845;DHT22;9047;53.486;10.218;2023-04-24T09:15:42;16.60;99.90
17845;DHT22;9047;53.486;10.218;2023-04-24T09:18:17;16.50;99.90
17845;DHT22;9047;53.486;10.218;2023-04-24T09:21:04;16.30;99.90
17845;DHT22;9047;53.486;10.218;2023-04-24T09:23:38;16.20;99.90
17845;DHT22;9047;53.486;10.218;2023-04-24T09:26:07;16.20;99.90
17845;DHT22;9047;53.486;10.218;2023-04-24T09:28:40;16.10;99.90
17845;DHT22;9047;53.486;10.218;2023-04-24T09:31:11;16.00;99.90
17845;DHT22;9047;53.486;10.218;2023-04-24T09:33:41;15.80;99.90
17845;DHT22;9047;53.486;10.218;2023-04-24T09:36:30;15.80;99.90
17845;DHT22;9047;53.486;10.218;2023-04-24T09:39:05;15.90;99.90
17845;DHT22;9047;53.486;10.218;2023-04-24T09:41:38;16.10;99.90
17845;DHT22;9047;53.486;10.218;2023-04-24T09:44:17;16.20;99.90
17845;DHT22;9047;53.486;10.218;2023-04-24T09:50:17;16.40;99.90
17845;DHT22;9047;53.486;10.218;2023-04-24T09:53:01;16.40;99.90
17845;DHT22;9047;53.486;10.218;2023-04-24T09:58:41;16.60;99.60
17845;DHT22;9047;53.486;10.218;2023-04-24T10:01:30;16.70;99.50
17845;DHT22;9047;53.486;10.218;2023-04-24T10:04:04;16.70;99.40
17845;DHT22;9047;53.486;10.218;2023-04-24T10:06:43;16.50;99.70
17845;DHT22;9047;53.486;10.218;2023-04-24T10:09:34;16.60;99.90
17845;DHT22;9047;53.486;10.218;2023-04-24T10:12:06;16.70;99.90
17845;DHT22;9047;53.486;10.218;2023-04-24T10:14:40;16.80;99.90
17845;DHT22;9047;53.486;10.218;2023-04-24T10:17:19;16.70;99.90
17845;DHT22;9047;53.486;10.218;2023-04-24T10:19:47;16.70;99.90
17845;DHT22;9047;53.486;10.218;2023-04-24T10:22:23;16.80;99.90
17845;DHT22;9047;53.486;10.218;2023-04-24T10:25:05;16.80;99.60
17845;DHT22;9047;53.486;10.218;2023-04-24T10:27:40;16.90;99.90
17845;DHT22;9047;53.486;10.218;2023-04-24T10:30:22;17.00;99.80
17845;DHT22;9047;53.486;10.218;2023-04-24T10:32:56;16.90;99.40
17845;DHT22;9047;53.486;10.218;2023-04-24T10:35:32;16.80;99.50
17845;DHT22;9047;53.486;10.218;2023-04-24T10:38:04;16.60;99.90
17845;DHT22;9047;53.486;10.218;2023-04-24T10:40:37;16.50;99.90
17845;DHT22;9047;53.486;10.218;2023-04-24T10:43:17;16.30;99.90
17845;DHT22;9047;53.486;10.218;2023-04-24T10:46:22;16.10;99.90
17845;DHT22;9047;53.486;10.218;2023-04-24T10:48:56;16.00;99.90
17845;DHT22;9047;53.486;10.218;2023-04-24T10:51:47;15.90;99.90
17845;DHT22;9047;53.486;10.218;2023-04-24T10:54:35;15.90;99.90
17845;DHT22;9047;53.486;10.218;2023-04-24T10:57:32;16.00;99.90
17845;DHT22;9047;53.486;10.218;2023-04-24T11:00:24;16.30;99.90
17845;DHT22;9047;53.486;10.218;2023-04-24T11:02:56;16.40;99.90
17845;DHT22;9047;53.486;10.218;2023-04-24T11:09:02;16.50;99.90
17845;DHT22;9047;53.486;10.218;2023-04-24T11:11:45;16.60;99.90
17845;DHT22;9047;53.486;10.218;2023-04-24T11:14:20;16.70;99.90
17845;DHT22;9047;53.486;10.218;2023-04-24T11:16:53;17.00;99.90
17845;DHT22;9047;53.486;10.218;2023-04-24T11:19:49;17.20;99.90
17845;DHT22;9047;53.486;10.218;2023-04-24T11:22:29;17.50;99.60
17845;DHT22;9047;53.486;10.218;2023-04-24T11:25:05;17.60;98.60
17845;DHT22;9047;53.486;10.218;2023-04-24T11:27:45;17.60;98.10
17845;DHT22;9047;53.486;10.218;2023-04-24T11:30:30;17.50;97.80
17845;DHT22;9047;53.486;10.218;2023-04-24T11:33:05;17.40;98.20
17845;DHT22;9047;53.486;10.218;2023-04-24T11:35:38;17.20;97.70
17845;DHT22;9047;53.486;10.218;2023-04-24T11:38:07;17.00;98.00
17845;DHT22;9047;53.486;10.218;2023-04-24T11:40:40;17.00;98.20
17845;DHT22;9047;53.486;10.218;2023-04-24T11:43:08;17.00;97.90
17845;DHT22;9047;53.486;10.218;2023-04-24T11:45:39;17.00;98.10
17845;DHT22;9047;53.486;10.218;2023-04-24T11:48:21;17.10;98.20
17845;DHT22;9047;53.486;10.218;2023-04-24T11:50:48;17.10;98.70
17845;DHT22;9047;53.486;10.218;2023-04-24T11:53:21;17.10;98.20
17845;DHT22;9047;53.486;10.218;2023-04-24T11:56:06;17.00;97.20
17845;DHT22;9047;53.486;10.218;2023-04-24T11:58:44;17.00;97.40
17845;DHT22;9047;53.486;10.218;2023-04-24T12:01:17;17.00;97.10
17845;DHT22;9047;53.486;10.218;2023-04-24T12:03:49;17.20;96.90
17845;DHT22;9047;53.486;10.218;2023-04-24T12:06:20;17.30;96.80
17845;DHT22;9047;53.486;10.218;2023-04-24T12:08:48;17.60;96.80
17845;DHT22;9047;53.486;10.218;2023-04-24T12:11:26;17.80;96.50
17845;DHT22;9047;53.486;10.218;2023-04-24T12:13:56;17.80;96.00
17845;DHT22;9047;53.486;10.218;2023-04-24T12:16:47;17.90;96.60
17845;DHT22;9047;53.486;10.218;2023-04-24T12:19:18;17.80;95.50
17845;DHT22;9047;53.486;10.218;2023-04-24T12:22:05;17.70;95.40
17845;DHT22;9047;53.486;10.218;2023-04-24T12:24:33;17.70;95.80
17845;DHT22;9047;53.486;10.218;2023-04-24T12:27:02;17.60;95.80
17845;DHT22;9047;53.486;10.218;2023-04-24T12:29:32;17.50;96.30
17845;DHT22;9047;53.486;10.218;2023-04-24T12:32:16;17.40;96.40
17845;DHT22;9047;53.486;10.218;2023-04-24T12:34:46;17.30;96.90
17845;DHT22;9047;53.486;10.218;2023-04-24T12:37:14;17.40;97.40
17845;DHT22;9047;53.486;10.218;2023-04-24T12:40:00;17.50;96.70
17845;DHT22;9047;53.486;10.218;2023-04-24T12:42:34;17.40;96.80
17845;DHT22;9047;53.486;10.218;2023-04-24T12:45:04;17.20;96.70
17845;DHT22;9047;53.486;10.218;2023-04-24T12:47:35;16.90;96.70
17845;DHT22;9047;53.486;10.218;2023-04-24T12:50:04;16.70;97.30
17845;DHT22;9047;53.486;10.218;2023-04-24T12:52:33;16.30;97.70
17845;DHT22;9047;53.486;10.218;2023-04-24T12:55:07;16.00;98.20
17845;DHT22;9047;53.486;10.218;2023-04-24T12:57:41;15.70;98.70
17845;DHT22;9047;53.486;10.218;2023-04-24T13:00:14;15.50;99.10
17845;DHT22;9047;53.486;10.218;2023-04-24T13:02:47;15.20;99.70
17845;DHT22;9047;53.486;10.218;2023-04-24T13:05:26;15.00;99.90
17845;DHT22;9047;53.486;10.218;2023-04-24T13:08:16;14.80;99.90
17845;DHT22;9047;53.486;10.218;2023-04-24T13:10:58;14.60;99.90
17845;DHT22;9047;53.486;10.218;2023-04-24T13:13:28;14.40;99.90
17845;DHT22;9047;53.486;10.218;2023-04-24T13:15:59;14.40;99.90
17845;DHT22;9047;53.486;10.218;2023-04-24T13:18:38;14.40;99.90
17845;DHT22;9047;53.486;10.218;2023-04-24T13:21:17;14.40;99.90
17845;DHT22;9047;53.486;10.218;2023-04-24T13:23:48;14.30;99.90
17845;DHT22;9047;53.486;10.218;2023-04-24T13:26:17;14.20;99.90
17845;DHT22;9047;53.486;10.218;2023-04-24T13:28:47;14.20;99.90
17845;DHT22;9047;53.486;10.218;2023-04-24T13:31:19;14.10;99.90
17845;DHT22;9047;53.486;10.218;2023-04-24T13:33:47;14.00;99.90
17845;DHT22;9047;53.486;10.218;2023-04-24T13:36:14;13.80;99.90
17845;DHT22;9047;53.486;10.218;2023-04-24T13:38:45;13.70;99.90
17845;DHT22;9047;53.486;10.218;2023-04-24T13:41:19;13.50;99.90
17845;DHT22;9047;53.486;10.218;2023-04-24T13:43:57;13.40;99.90
17845;DHT22;9047;53.486;10.218;2023-04-24T13:46:46;13.20;99.90
17845;DHT22;9047;53.486;10.218;2023-04-24T13:49:18;13.20;99.90
17845;DHT22;9047;53.486;10.218;2023-04-24T13:51:55;13.00;99.90
17845;DHT22;9047;53.486;10.218;2023-04-24T13:54:34;13.10;99.90
17845;DHT22;9047;53.486;10.218;2023-04-24T13:57:13;13.10;99.90
17845;DHT22;9047;53.486;10.218;2023-04-24T13:59:47;13.10;99.90
17845;DHT22;9047;53.486;10.218;2023-04-24T14:02:15;13.10;99.90
17845;DHT22;9047;53.486;10.218;2023-04-24T14:04:55;13.10;99.90
17845;DHT22;9047;53.486;10.218;2023-04-24T14:07:48;13.10;99.90
17845;DHT22;9047;53.486;10.218;2023-04-24T14:10:22;13.20;99.90
17845;DHT22;9047;53.486;10.218;2023-04-24T14:16:10;13.20;99.90
17845;DHT22;9047;53.486;10.218;2023-04-24T14:19:03;13.30;99.90
17845;DHT22;9047;53.486;10.218;2023-04-24T14:21:45;13.30;99.90
17845;DHT22;9047;53.486;10.218;2023-04-24T14:27:20;13.50;99.90
17845;DHT22;9047;53.486;10.218;2023-04-24T14:35:48;13.80;99.90
17845;DHT22;9047;53.486;10.218;2023-04-24T14:38:15;13.80;99.90
17845;DHT22;9047;53.486;10.218;2023-04-24T14:40:43;13.80;99.90
17845;DHT22;9047;53.486;10.218;2023-04-24T14:43:27;13.70;99.90
17845;DHT22;9047;53.486;10.218;2023-04-24T14:45:58;13.70;99.90
17845;DHT22;9047;53.486;10.218;2023-04-24T14:51:27;13.80;99.90
17845;DHT22;9047;53.486;10.218;2023-04-24T14:54:18;13.90;99.90
17845;DHT22;9047;53.486;10.218;2023-04-24T14:56:50;13.80;99.90
17845;DHT22;9047;53.486;10.218;2023-04-24T14:59:22;13.70;99.90
17845;DHT22;9047;53.486;10.218;2023-04-24T15:01:51;13.60;99.90
17845;DHT22;9047;53.486;10.218;2023-04-24T15:04:40;13.40;99.90
17845;DHT22;9047;53.486;10.218;2023-04-24T15:07:13;13.30;99.90
17845;DHT22;9047;53.486;10.218;2023-04-24T15:09:43;13.10;99.90
17845;DHT22;9047;53.486;10.218;2023-04-24T15:12:18;12.90;99.90
17845;DHT22;9047;53.486;10.218;2023-04-24T15:14:49;12.70;99.90
17845;DHT22;9047;53.486;10.218;2023-04-24T15:17:25;12.60;99.90
17845;DHT22;9047;53.486;10.218;2023-04-24T15:19:52;12.40;99.90
17845;DHT22;9047;53.486;10.218;2023-04-24T15:22:43;12.20;99.90
17845;DHT22;9047;53.486;10.218;2023-04-24T15:25:16;12.00;99.90
17845;DHT22;9047;53.486;10.218;2023-04-24T15:27:51;11.90;99.90
17845;DHT22;9047;53.486;10.218;2023-04-24T15:30:18;11.70;99.90
17845;DHT22;9047;53.486;10.218;2023-04-24T15:32:45;11.60;99.90
17845;DHT22;9047;53.486;10.218;2023-04-24T15:35:17;11.40;99.90
17845;DHT22;9047;53.486;10.218;2023-04-24T15:38:05;11.20;99.90
17845;DHT22;9047;53.486;10.218;2023-04-24T15:40:45;11.10;99.90
17845;DHT22;9047;53.486;10.218;2023-04-24T15:43:14;11.10;99.90
17845;DHT22;9047;53.486;10.218;2023-04-24T15:45:44;11.00;99.90
17845;DHT22;9047;53.486;10.218;2023-04-24T15:48:18;11.00;99.90
17845;DHT22;9047;53.486;10.218;2023-04-24T15:51:04;11.00;99.90
17845;DHT22;9047;53.486;10.218;2023-04-24T15:54:09;10.90;99.90
17845;DHT22;9047;53.486;10.218;2023-04-24T15:56:42;10.80;99.90
17845;DHT22;9047;53.486;10.218;2023-04-24T15:59:14;10.80;99.90
17845;DHT22;9047;53.486;10.218;2023-04-24T16:01:43;10.80;99.90
17845;DHT22;9047;53.486;10.218;2023-04-24T16:04:18;10.70;99.90
17845;DHT22;9047;53.486;10.218;2023-04-24T16:06:54;10.60;99.90
17845;DHT22;9047;53.486;10.218;2023-04-24T16:09:26;10.60;99.90
17845;DHT22;9047;53.486;10.218;2023-04-24T16:12:07;10.50;99.90
17845;DHT22;9047;53.486;10.218;2023-04-24T16:14:40;10.40;99.90
17845;DHT22;9047;53.486;10.218;2023-04-24T16:17:09;10.30;99.90
17845;DHT22;9047;53.486;10.218;2023-04-24T16:19:39;10.20;99.90
17845;DHT22;9047;53.486;10.218;2023-04-24T16:22:09;10.20;99.90
17845;DHT22;9047;53.486;10.218;2023-04-24T16:25:08;10.00;99.90
17845;DHT22;9047;53.486;10.218;2023-04-24T16:27:43;9.90;99.90
17845;DHT22;9047;53.486;10.218;2023-04-24T16:30:28;9.90;99.90
17845;DHT22;9047;53.486;10.218;2023-04-24T16:33:00;9.80;99.90
17845;DHT22;9047;53.486;10.218;2023-04-24T16:35:37;9.80;99.90
17845;DHT22;9047;53.486;10.218;2023-04-24T16:38:32;9.70;99.90
17845;DHT22;9047;53.486;10.218;2023-04-24T16:41:15;9.70;99.90
17845;DHT22;9047;53.486;10.218;2023-04-24T16:43:47;9.60;99.90
17845;DHT22;9047;53.486;10.218;2023-04-24T16:46:21;9.50;99.90